SBOSBO LGG / EBLG
Speedbird OnlineSpeedbird Online LGG / EBLG

Liège Airport
09:52 19.8°C

Location Liege, Belgium
Latitude: 50.63740158081055
Longitude: 5.443220138549805
Local Time 09:52 on 18 Jul 2024
UTC +2 hours (Europe/Brussels)
Currency £1 equals EUR 1.19
METAR EBLG 180720Z 12004KT 090V150 CAVOK 19/14 Q1023 NOSIG
TAF TAF EBLG 180500Z 1806/1912 14003KT CAVOK
Weather As Of 18 Jul 2024 09:52
Description Clear sky
Wind 7 km/h from South-East (120°)
Cloud Cover 0%
Precipitation Rain: none, Snow: none
Sunrise 05:46
Sunset 21:41
Web Airport Website | Wikipedia
Codes IATA: LGG
ICAO: EBLG
Altitude 201 Meter / 659 Feet
Distance 383 KM / 238 Miles
from London.
Runways
RunwayLength (m)Surface
04L2340Asphalt
04R3690Asphalt
22L3690Asphalt
22R2340Asphalt
Radio
TypeDescriptionFrequency
A/DAPP119.28
ATISATIS126.255
CLDCLNC DEL121.8
GNDGND118.13
TWRTWR129.25
Live ATC



Support Speedbird Online

© 2017-2024 Speedbird Online